sensor_id;sensor_type;location;lat;lon;timestamp;temperature;humidity
702;DHT22;334;48.808;9.222;2023-03-16T00:00:50;5.90;1.00
702;DHT22;334;48.808;9.222;2023-03-16T00:01:52;5.90;1.00
702;DHT22;334;48.808;9.222;2023-03-16T00:02:54;5.90;1.00
702;DHT22;334;48.808;9.222;2023-03-16T00:03:56;5.90;1.00
702;DHT22;334;48.808;9.222;2023-03-16T00:04:57;5.90;1.00
702;DHT22;334;48.808;9.222;2023-03-16T00:05:59;6.00;1.00
702;DHT22;334;48.808;9.222;2023-03-16T00:07:01;5.90;1.00
702;DHT22;334;48.808;9.222;2023-03-16T00:08:03;5.90;1.00
702;DHT22;334;48.808;9.222;2023-03-16T00:09:05;5.90;1.00
702;DHT22;334;48.808;9.222;2023-03-16T00:10:07;5.90;1.00
702;DHT22;334;48.808;9.222;2023-03-16T00:11:09;5.90;1.00
702;DHT22;334;48.808;9.222;2023-03-16T00:12:19;5.90;1.00
702;DHT22;334;48.808;9.222;2023-03-16T00:13:22;5.90;1.00
702;DHT22;334;48.808;9.222;2023-03-16T00:14:25;5.90;1.00
702;DHT22;334;48.808;9.222;2023-03-16T00:15:27;5.90;1.00
702;DHT22;334;48.808;9.222;2023-03-16T00:16:30;5.90;1.00
702;DHT22;334;48.808;9.222;2023-03-16T00:17:31;5.90;1.00
702;DHT22;334;48.808;9.222;2023-03-16T00:18:35;5.80;1.00
702;DHT22;334;48.808;9.222;2023-03-16T00:19:39;5.90;1.00
702;DHT22;334;48.808;9.222;2023-03-16T00:20:52;5.80;1.00
702;DHT22;334;48.808;9.222;2023-03-16T00:21:54;5.80;1.00
702;DHT22;334;48.808;9.222;2023-03-16T00:22:55;5.80;1.00
702;DHT22;334;48.808;9.222;2023-03-16T00:23:58;5.80;1.00
702;DHT22;334;48.808;9.222;2023-03-16T00:25:00;5.80;1.00
702;DHT22;334;48.808;9.222;2023-03-16T00:26:04;5.80;1.00
702;DHT22;334;48.808;9.222;2023-03-16T00:27:07;5.80;1.00
702;DHT22;334;48.808;9.222;2023-03-16T00:28:08;5.80;1.00
702;DHT22;334;48.808;9.222;2023-03-16T00:29:10;5.80;1.00
702;DHT22;334;48.808;9.222;2023-03-16T00:30:12;5.70;1.00
702;DHT22;334;48.808;9.222;2023-03-16T00:31:14;5.70;1.00
702;DHT22;334;48.808;9.222;2023-03-16T00:32:18;5.80;1.00
702;DHT22;334;48.808;9.222;2023-03-16T00:33:20;5.70;1.00
702;DHT22;334;48.808;9.222;2023-03-16T00:34:23;5.70;1.00
702;DHT22;334;48.808;9.222;2023-03-16T00:35:25;5.70;1.00
702;DHT22;334;48.808;9.222;2023-03-16T00:36:27;5.70;1.00
702;DHT22;334;48.808;9.222;2023-03-16T00:37:30;5.70;1.00
702;DHT22;334;48.808;9.222;2023-03-16T00:38:34;5.70;1.00
702;DHT22;334;48.808;9.222;2023-03-16T00:39:37;5.70;1.00
702;DHT22;334;48.808;9.222;2023-03-16T00:40:38;5.70;1.00
702;DHT22;334;48.808;9.222;2023-03-16T00:41:41;5.70;1.00
702;DHT22;334;48.808;9.222;2023-03-16T00:42:43;5.70;1.00
702;DHT22;334;48.808;9.222;2023-03-16T00:43:45;5.70;1.00
702;DHT22;334;48.808;9.222;2023-03-16T00:44:47;5.70;1.00
702;DHT22;334;48.808;9.222;2023-03-16T00:45:48;5.70;1.00
702;DHT22;334;48.808;9.222;2023-03-16T00:46:51;5.70;1.00
702;DHT22;334;48.808;9.222;2023-03-16T00:47:53;5.60;1.00
702;DHT22;334;48.808;9.222;2023-03-16T00:48:55;5.60;1.00
702;DHT22;334;48.808;9.222;2023-03-16T00:49:58;5.60;1.00
702;DHT22;334;48.808;9.222;2023-03-16T00:51:01;5.60;1.00
702;DHT22;334;48.808;9.222;2023-03-16T00:52:06;5.60;1.00
702;DHT22;334;48.808;9.222;2023-03-16T00:53:08;5.60;1.00
702;DHT22;334;48.808;9.222;2023-03-16T00:54:10;5.60;1.00
702;DHT22;334;48.808;9.222;2023-03-16T00:55:12;5.60;1.00
702;DHT22;334;48.808;9.222;2023-03-16T00:56:15;5.60;1.00
702;DHT22;334;48.808;9.222;2023-03-16T00:57:17;5.60;1.00
702;DHT22;334;48.808;9.222;2023-03-16T00:58:19;5.50;1.00
702;DHT22;334;48.808;9.222;2023-03-16T00:59:21;5.60;1.00
702;DHT22;334;48.808;9.222;2023-03-16T01:00:23;5.50;1.00
702;DHT22;334;48.808;9.222;2023-03-16T01:01:29;5.50;1.00
702;DHT22;334;48.808;9.222;2023-03-16T01:02:31;5.50;1.00
702;DHT22;334;48.808;9.222;2023-03-16T01:03:33;5.50;1.00
702;DHT22;334;48.808;9.222;2023-03-16T01:04:36;5.50;1.00
702;DHT22;334;48.808;9.222;2023-03-16T01:05:41;5.50;1.00
702;DHT22;334;48.808;9.222;2023-03-16T01:06:42;5.50;1.00
702;DHT22;334;48.808;9.222;2023-03-16T01:07:44;5.50;1.00
702;DHT22;334;48.808;9.222;2023-03-16T01:08:46;5.50;1.00
702;DHT22;334;48.808;9.222;2023-03-16T01:09:48;5.50;1.00
702;DHT22;334;48.808;9.222;2023-03-16T01:10:50;5.50;1.00
702;DHT22;334;48.808;9.222;2023-03-16T01:11:52;5.50;1.00
702;DHT22;334;48.808;9.222;2023-03-16T01:12:55;5.50;1.00
702;DHT22;334;48.808;9.222;2023-03-16T01:13:59;5.50;1.00
702;DHT22;334;48.808;9.222;2023-03-16T01:15:01;5.50;1.00
702;DHT22;334;48.808;9.222;2023-03-16T01:16:05;5.50;1.00
702;DHT22;334;48.808;9.222;2023-03-16T01:17:08;5.50;1.00
702;DHT22;334;48.808;9.222;2023-03-16T01:18:10;5.40;1.00
702;DHT22;334;48.808;9.222;2023-03-16T01:19:14;5.40;1.00
702;DHT22;334;48.808;9.222;2023-03-16T01:20:16;5.40;1.00
702;DHT22;334;48.808;9.222;2023-03-16T01:21:20;5.40;1.00
702;DHT22;334;48.808;9.222;2023-03-16T01:22:22;5.40;1.00
702;DHT22;334;48.808;9.222;2023-03-16T01:23:24;5.40;1.00
702;DHT22;334;48.808;9.222;2023-03-16T01:24:26;5.40;1.00
702;DHT22;334;48.808;9.222;2023-03-16T01:25:29;5.40;1.00
702;DHT22;334;48.808;9.222;2023-03-16T01:26:31;5.40;1.00
702;DHT22;334;48.808;9.222;2023-03-16T01:27:34;5.40;1.00
702;DHT22;334;48.808;9.222;2023-03-16T01:28:37;5.40;1.00
702;DHT22;334;48.808;9.222;2023-03-16T01:29:40;5.40;1.00
702;DHT22;334;48.808;9.222;2023-03-16T01:30:44;5.40;1.00
702;DHT22;334;48.808;9.222;2023-03-16T01:31:46;5.40;1.00
702;DHT22;334;48.808;9.222;2023-03-16T01:32:48;5.30;1.00
702;DHT22;334;48.808;9.222;2023-03-16T01:33:50;5.30;1.00
702;DHT22;334;48.808;9.222;2023-03-16T01:34:52;5.30;1.00
702;DHT22;334;48.808;9.222;2023-03-16T01:36:00;5.30;1.00
702;DHT22;334;48.808;9.222;2023-03-16T01:37:03;5.40;1.00
702;DHT22;334;48.808;9.222;2023-03-16T01:38:04;5.40;1.00
702;DHT22;334;48.808;9.222;2023-03-16T01:39:06;5.30;1.00
702;DHT22;334;48.808;9.222;2023-03-16T01:40:09;5.40;1.00
702;DHT22;334;48.808;9.222;2023-03-16T01:41:13;5.40;1.00
702;DHT22;334;48.808;9.222;2023-03-16T01:42:15;5.40;1.00
702;DHT22;334;48.808;9.222;2023-03-16T01:43:19;5.40;1.00
702;DHT22;334;48.808;9.222;2023-03-16T01:44:24;5.40;1.00
702;DHT22;334;48.808;9.222;2023-03-16T01:47:07;5.40;1.00
702;DHT22;334;48.808;9.222;2023-03-16T01:48:09;5.40;1.00
702;DHT22;334;48.808;9.222;2023-03-16T01:49:25;5.30;1.00
702;DHT22;334;48.808;9.222;2023-03-16T01:50:28;5.30;1.00
702;DHT22;334;48.808;9.222;2023-03-16T01:52:37;5.30;1.40
702;DHT22;334;48.808;9.222;2023-03-16T01:53:43;5.30;1.10
702;DHT22;334;48.808;9.222;2023-03-16T01:55:09;5.30;1.50
702;DHT22;334;48.808;9.222;2023-03-16T01:56:12;5.30;1.50
702;DHT22;334;48.808;9.222;2023-03-16T01:58:20;5.30;1.30
702;DHT22;334;48.808;9.222;2023-03-16T01:59:27;5.30;1.50
702;DHT22;334;48.808;9.222;2023-03-16T02:00:31;5.30;1.50
702;DHT22;334;48.808;9.222;2023-03-16T02:01:34;5.30;1.50
702;DHT22;334;48.808;9.222;2023-03-16T02:02:39;5.30;1.40
702;DHT22;334;48.808;9.222;2023-03-16T02:03:42;5.40;1.30
702;DHT22;334;48.808;9.222;2023-03-16T02:05:08;5.40;1.10
702;DHT22;334;48.808;9.222;2023-03-16T02:06:15;5.40;1.50
702;DHT22;334;48.808;9.222;2023-03-16T02:07:21;5.30;1.30
702;DHT22;334;48.808;9.222;2023-03-16T02:08:26;5.40;1.50
702;DHT22;334;48.808;9.222;2023-03-16T02:09:30;5.40;1.60
702;DHT22;334;48.808;9.222;2023-03-16T02:10:34;5.40;1.80
702;DHT22;334;48.808;9.222;2023-03-16T02:11:36;5.40;1.30
702;DHT22;334;48.808;9.222;2023-03-16T02:12:38;5.40;1.40
702;DHT22;334;48.808;9.222;2023-03-16T02:13:40;5.40;1.10
702;DHT22;334;48.808;9.222;2023-03-16T02:14:45;5.40;1.40
702;DHT22;334;48.808;9.222;2023-03-16T02:15:48;5.40;1.50
702;DHT22;334;48.808;9.222;2023-03-16T02:16:50;5.40;1.90
702;DHT22;334;48.808;9.222;2023-03-16T02:17:53;5.40;1.50
702;DHT22;334;48.808;9.222;2023-03-16T02:18:55;5.40;1.60
702;DHT22;334;48.808;9.222;2023-03-16T02:21:49;5.40;1.10
702;DHT22;334;48.808;9.222;2023-03-16T02:22:55;5.40;1.00
702;DHT22;334;48.808;9.222;2023-03-16T02:23:57;5.40;1.00
702;DHT22;334;48.808;9.222;2023-03-16T02:24:58;5.40;1.00
702;DHT22;334;48.808;9.222;2023-03-16T02:26:10;5.30;1.00
702;DHT22;334;48.808;9.222;2023-03-16T02:27:22;5.30;1.40
702;DHT22;334;48.808;9.222;2023-03-16T02:30:00;5.30;1.80
702;DHT22;334;48.808;9.222;2023-03-16T02:31:04;5.30;1.70
702;DHT22;334;48.808;9.222;2023-03-16T02:32:06;5.30;1.40
702;DHT22;334;48.808;9.222;2023-03-16T02:33:09;5.30;1.30
702;DHT22;334;48.808;9.222;2023-03-16T02:34:13;5.40;1.30
702;DHT22;334;48.808;9.222;2023-03-16T02:35:16;5.40;1.40
702;DHT22;334;48.808;9.222;2023-03-16T02:36:19;5.40;1.10
702;DHT22;334;48.808;9.222;2023-03-16T02:37:21;5.40;1.00
702;DHT22;334;48.808;9.222;2023-03-16T02:38:23;5.40;1.00
702;DHT22;334;48.808;9.222;2023-03-16T02:39:25;5.40;1.00
702;DHT22;334;48.808;9.222;2023-03-16T02:40:29;5.40;1.00
702;DHT22;334;48.808;9.222;2023-03-16T02:41:31;5.40;1.00
702;DHT22;334;48.808;9.222;2023-03-16T02:42:33;5.30;1.00
702;DHT22;334;48.808;9.222;2023-03-16T02:43:37;5.30;1.00
702;DHT22;334;48.808;9.222;2023-03-16T02:44:42;5.30;1.00
702;DHT22;334;48.808;9.222;2023-03-16T02:45:49;5.30;1.00
702;DHT22;334;48.808;9.222;2023-03-16T02:46:56;5.30;1.00
702;DHT22;334;48.808;9.222;2023-03-16T02:48:01;5.30;1.00
702;DHT22;334;48.808;9.222;2023-03-16T02:49:25;5.40;1.00
702;DHT22;334;48.808;9.222;2023-03-16T02:50:28;5.30;1.00
702;DHT22;334;48.808;9.222;2023-03-16T02:51:30;5.30;1.00
702;DHT22;334;48.808;9.222;2023-03-16T02:52:34;5.30;1.00
702;DHT22;334;48.808;9.222;2023-03-16T02:53:38;5.30;1.00
702;DHT22;334;48.808;9.222;2023-03-16T02:54:40;5.30;1.00
702;DHT22;334;48.808;9.222;2023-03-16T02:55:42;5.30;1.00
702;DHT22;334;48.808;9.222;2023-03-16T02:56:45;5.30;1.00
702;DHT22;334;48.808;9.222;2023-03-16T02:57:47;5.30;1.00
702;DHT22;334;48.808;9.222;2023-03-16T02:58:49;5.40;1.00
702;DHT22;334;48.808;9.222;2023-03-16T02:59:51;5.30;1.00
702;DHT22;334;48.808;9.222;2023-03-16T03:00:53;5.40;1.00
702;DHT22;334;48.808;9.222;2023-03-16T03:01:55;5.30;1.00
702;DHT22;334;48.808;9.222;2023-03-16T03:02:57;5.30;1.00
702;DHT22;334;48.808;9.222;2023-03-16T03:04:00;5.40;1.00
702;DHT22;334;48.808;9.222;2023-03-16T03:05:02;5.30;1.00
702;DHT22;334;48.808;9.222;2023-03-16T03:06:04;5.30;1.00
702;DHT22;334;48.808;9.222;2023-03-16T03:07:07;5.30;1.00
702;DHT22;334;48.808;9.222;2023-03-16T03:08:09;5.30;1.00
702;DHT22;334;48.808;9.222;2023-03-16T03:09:10;5.20;1.00
702;DHT22;334;48.808;9.222;2023-03-16T03:10:12;5.20;1.00
702;DHT22;334;48.808;9.222;2023-03-16T03:11:14;5.20;1.00
702;DHT22;334;48.808;9.222;2023-03-16T03:12:16;5.30;1.00
702;DHT22;334;48.808;9.222;2023-03-16T03:13:18;5.30;1.00
702;DHT22;334;48.808;9.222;2023-03-16T03:14:19;5.30;1.00
702;DHT22;334;48.808;9.222;2023-03-16T03:15:22;5.30;1.00
702;DHT22;334;48.808;9.222;2023-03-16T03:16:24;5.30;1.00
702;DHT22;334;48.808;9.222;2023-03-16T03:17:27;5.30;1.00
702;DHT22;334;48.808;9.222;2023-03-16T03:18:31;5.30;1.00
702;DHT22;334;48.808;9.222;2023-03-16T03:19:33;5.30;1.00
702;DHT22;334;48.808;9.222;2023-03-16T03:20:36;5.30;1.00
702;DHT22;334;48.808;9.222;2023-03-16T03:21:38;5.30;1.00
702;DHT22;334;48.808;9.222;2023-03-16T03:22:44;5.30;1.00
702;DHT22;334;48.808;9.222;2023-03-16T03:23:47;5.30;1.00
702;DHT22;334;48.808;9.222;2023-03-16T03:24:49;5.30;1.00
702;DHT22;334;48.808;9.222;2023-03-16T03:25:50;5.30;1.00
702;DHT22;334;48.808;9.222;2023-03-16T03:26:52;5.30;1.00
702;DHT22;334;48.808;9.222;2023-03-16T03:27:54;5.30;1.00
702;DHT22;334;48.808;9.222;2023-03-16T03:28:56;5.30;1.00
702;DHT22;334;48.808;9.222;2023-03-16T03:29:58;5.30;1.00
702;DHT22;334;48.808;9.222;2023-03-16T03:31:00;5.50;1.00
702;DHT22;334;48.808;9.222;2023-03-16T03:32:03;5.30;1.00
702;DHT22;334;48.808;9.222;2023-03-16T03:33:05;5.30;1.00
702;DHT22;334;48.808;9.222;2023-03-16T03:34:07;5.30;1.00
702;DHT22;334;48.808;9.222;2023-03-16T03:35:11;5.30;1.00
702;DHT22;334;48.808;9.222;2023-03-16T03:36:13;5.20;1.00
702;DHT22;334;48.808;9.222;2023-03-16T03:37:15;5.20;1.00
702;DHT22;334;48.808;9.222;2023-03-16T03:38:17;5.20;1.00
702;DHT22;334;48.808;9.222;2023-03-16T03:39:19;5.20;1.00
702;DHT22;334;48.808;9.222;2023-03-16T03:40:21;5.20;1.00
702;DHT22;334;48.808;9.222;2023-03-16T03:41:23;5.20;1.00
702;DHT22;334;48.808;9.222;2023-03-16T03:42:24;5.20;1.00
702;DHT22;334;48.808;9.222;2023-03-16T03:43:26;5.20;1.00
702;DHT22;334;48.808;9.222;2023-03-16T03:44:28;5.20;1.00
702;DHT22;334;48.808;9.222;2023-03-16T03:45:30;5.20;1.00
702;DHT22;334;48.808;9.222;2023-03-16T03:46:33;5.20;1.00
702;DHT22;334;48.808;9.222;2023-03-16T03:47:35;5.20;1.00
702;DHT22;334;48.808;9.222;2023-03-16T03:48:37;5.10;1.00
702;DHT22;334;48.808;9.222;2023-03-16T03:49:39;5.20;1.00
702;DHT22;334;48.808;9.222;2023-03-16T03:50:40;5.20;1.00
702;DHT22;334;48.808;9.222;2023-03-16T03:51:43;5.20;1.00
702;DHT22;334;48.808;9.222;2023-03-16T03:52:46;5.10;1.00
702;DHT22;334;48.808;9.222;2023-03-16T03:53:48;5.10;1.00
702;DHT22;334;48.808;9.222;2023-03-16T03:54:50;5.10;1.00
702;DHT22;334;48.808;9.222;2023-03-16T03:55:52;5.10;1.00
702;DHT22;334;48.808;9.222;2023-03-16T03:56:54;5.10;1.00
702;DHT22;334;48.808;9.222;2023-03-16T03:57:55;5.10;1.00
702;DHT22;334;48.808;9.222;2023-03-16T03:58:57;5.10;1.00
702;DHT22;334;48.808;9.222;2023-03-16T03:59:59;5.10;1.00
702;DHT22;334;48.808;9.222;2023-03-16T04:01:01;5.10;1.00
702;DHT22;334;48.808;9.222;2023-03-16T04:02:03;5.10;1.00
702;DHT22;334;48.808;9.222;2023-03-16T04:03:05;5.00;1.00
702;DHT22;334;48.808;9.222;2023-03-16T04:04:07;5.00;1.00
702;DHT22;334;48.808;9.222;2023-03-16T04:05:09;5.00;1.00
702;DHT22;334;48.808;9.222;2023-03-16T04:06:11;5.00;1.00
702;DHT22;334;48.808;9.222;2023-03-16T04:07:13;5.10;1.00
702;DHT22;334;48.808;9.222;2023-03-16T04:08:14;5.00;1.00
702;DHT22;334;48.808;9.222;2023-03-16T04:09:17;5.00;1.00
702;DHT22;334;48.808;9.222;2023-03-16T04:10:19;5.00;1.00
702;DHT22;334;48.808;9.222;2023-03-16T04:11:21;5.00;1.00
702;DHT22;334;48.808;9.222;2023-03-16T04:12:23;5.00;1.00
702;DHT22;334;48.808;9.222;2023-03-16T04:13:26;5.00;1.00
702;DHT22;334;48.808;9.222;2023-03-16T04:14:28;5.00;1.00
702;DHT22;334;48.808;9.222;2023-03-16T04:15:45;5.00;1.00
702;DHT22;334;48.808;9.222;2023-03-16T04:16:47;5.00;1.00
702;DHT22;334;48.808;9.222;2023-03-16T04:17:49;5.00;1.00
702;DHT22;334;48.808;9.222;2023-03-16T04:18:52;5.00;1.00
702;DHT22;334;48.808;9.222;2023-03-16T04:19:54;5.00;1.00
702;DHT22;334;48.808;9.222;2023-03-16T04:20:56;5.00;1.00
702;DHT22;334;48.808;9.222;2023-03-16T04:21:58;5.00;1.00
702;DHT22;334;48.808;9.222;2023-03-16T04:22:59;5.00;1.00
702;DHT22;334;48.808;9.222;2023-03-16T04:24:01;5.00;1.00
702;DHT22;334;48.808;9.222;2023-03-16T04:25:05;5.00;1.00
702;DHT22;334;48.808;9.222;2023-03-16T04:26:07;5.00;1.00
702;DHT22;334;48.808;9.222;2023-03-16T04:27:09;5.00;1.00
702;DHT22;334;48.808;9.222;2023-03-16T04:28:15;5.00;1.00
702;DHT22;334;48.808;9.222;2023-03-16T04:29:19;5.00;1.00
702;DHT22;334;48.808;9.222;2023-03-16T04:30:21;5.10;1.00
702;DHT22;334;48.808;9.222;2023-03-16T04:31:26;5.00;1.00
702;DHT22;334;48.808;9.222;2023-03-16T04:32:28;5.00;1.00
702;DHT22;334;48.808;9.222;2023-03-16T04:33:30;5.00;1.00
702;DHT22;334;48.808;9.222;2023-03-16T04:34:33;5.00;1.00
702;DHT22;334;48.808;9.222;2023-03-16T04:35:35;5.00;1.00
702;DHT22;334;48.808;9.222;2023-03-16T04:36:37;5.00;1.00
702;DHT22;334;48.808;9.222;2023-03-16T04:37:39;5.00;1.00
702;DHT22;334;48.808;9.222;2023-03-16T04:38:42;5.00;1.00
702;DHT22;334;48.808;9.222;2023-03-16T04:39:44;5.00;1.00
702;DHT22;334;48.808;9.222;2023-03-16T04:40:45;5.00;1.00
702;DHT22;334;48.808;9.222;2023-03-16T04:41:47;5.00;1.00
702;DHT22;334;48.808;9.222;2023-03-16T04:42:51;5.00;1.00
702;DHT22;334;48.808;9.222;2023-03-16T04:43:53;5.00;1.00
702;DHT22;334;48.808;9.222;2023-03-16T04:44:54;5.00;1.00
702;DHT22;334;48.808;9.222;2023-03-16T04:45:56;5.00;1.00
702;DHT22;334;48.808;9.222;2023-03-16T04:46:58;4.90;1.00
702;DHT22;334;48.808;9.222;2023-03-16T04:47:59;5.00;1.00
702;DHT22;334;48.808;9.222;2023-03-16T04:49:02;5.00;1.00
702;DHT22;334;48.808;9.222;2023-03-16T04:50:04;5.00;1.00
702;DHT22;334;48.808;9.222;2023-03-16T04:51:06;5.00;1.00
702;DHT22;334;48.808;9.222;2023-03-16T04:52:08;5.00;1.00
702;DHT22;334;48.808;9.222;2023-03-16T04:53:10;5.00;1.00
702;DHT22;334;48.808;9.222;2023-03-16T04:54:12;4.90;1.00
702;DHT22;334;48.808;9.222;2023-03-16T04:55:14;4.90;1.00
702;DHT22;334;48.808;9.222;2023-03-16T04:56:16;4.90;1.00
702;DHT22;334;48.808;9.222;2023-03-16T04:57:20;4.90;1.00
702;DHT22;334;48.808;9.222;2023-03-16T04:58:23;5.00;1.00
702;DHT22;334;48.808;9.222;2023-03-16T04:59:26;5.00;1.00
702;DHT22;334;48.808;9.222;2023-03-16T05:00:28;5.00;1.00
702;DHT22;334;48.808;9.222;2023-03-16T05:01:31;4.90;1.00
702;DHT22;334;48.808;9.222;2023-03-16T05:02:33;4.90;1.00
702;DHT22;334;48.808;9.222;2023-03-16T05:03:35;4.90;1.00
702;DHT22;334;48.808;9.222;2023-03-16T05:04:36;5.00;1.00
702;DHT22;334;48.808;9.222;2023-03-16T05:05:39;5.00;1.00
702;DHT22;334;48.808;9.222;2023-03-16T05:06:42;5.00;1.00
702;DHT22;334;48.808;9.222;2023-03-16T05:07:44;5.00;1.00
702;DHT22;334;48.808;9.222;2023-03-16T05:08:46;5.00;1.00
702;DHT22;334;48.808;9.222;2023-03-16T05:09:48;4.90;1.00
702;DHT22;334;48.808;9.222;2023-03-16T05:10:50;5.00;1.00
702;DHT22;334;48.808;9.222;2023-03-16T05:11:52;4.90;1.00
702;DHT22;334;48.808;9.222;2023-03-16T05:12:53;4.90;1.00
702;DHT22;334;48.808;9.222;2023-03-16T05:13:55;4.90;1.00
702;DHT22;334;48.808;9.222;2023-03-16T05:14:58;4.90;1.00
702;DHT22;334;48.808;9.222;2023-03-16T05:16:00;4.90;1.00
702;DHT22;334;48.808;9.222;2023-03-16T05:17:02;4.90;1.00
702;DHT22;334;48.808;9.222;2023-03-16T05:18:04;4.90;1.00
702;DHT22;334;48.808;9.222;2023-03-16T05:19:06;4.90;1.00
702;DHT22;334;48.808;9.222;2023-03-16T05:20:12;4.90;1.00
702;DHT22;334;48.808;9.222;2023-03-16T05:21:26;4.90;1.00
702;DHT22;334;48.808;9.222;2023-03-16T05:22:32;4.90;1.00
702;DHT22;334;48.808;9.222;2023-03-16T05:23:35;5.00;1.00
702;DHT22;334;48.808;9.222;2023-03-16T05:24:37;5.00;1.00
702;DHT22;334;48.808;9.222;2023-03-16T05:25:38;5.00;1.00
702;DHT22;334;48.808;9.222;2023-03-16T05:26:40;5.00;1.00
702;DHT22;334;48.808;9.222;2023-03-16T05:27:52;5.00;1.00
702;DHT22;334;48.808;9.222;2023-03-16T05:28:57;5.00;1.00
702;DHT22;334;48.808;9.222;2023-03-16T05:29:59;4.90;1.00
702;DHT22;334;48.808;9.222;2023-03-16T05:31:01;5.00;1.00
702;DHT22;334;48.808;9.222;2023-03-16T05:32:04;5.00;1.00
702;DHT22;334;48.808;9.222;2023-03-16T05:33:07;5.00;1.00
702;DHT22;334;48.808;9.222;2023-03-16T05:34:09;5.00;1.00
702;DHT22;334;48.808;9.222;2023-03-16T05:35:11;4.90;1.00
702;DHT22;334;48.808;9.222;2023-03-16T05:36:15;5.00;1.00
702;DHT22;334;48.808;9.222;2023-03-16T05:37:18;5.00;1.00
702;DHT22;334;48.808;9.222;2023-03-16T05:38:20;4.90;1.00
702;DHT22;334;48.808;9.222;2023-03-16T05:39:21;5.00;1.00
702;DHT22;334;48.808;9.222;2023-03-16T05:40:24;4.90;1.00
702;DHT22;334;48.808;9.222;2023-03-16T05:41:25;4.90;1.00
702;DHT22;334;48.808;9.222;2023-03-16T05:42:27;4.90;1.00
702;DHT22;334;48.808;9.222;2023-03-16T05:43:29;4.90;1.00
702;DHT22;334;48.808;9.222;2023-03-16T05:44:32;4.90;1.00
702;DHT22;334;48.808;9.222;2023-03-16T05:45:34;4.90;1.00
702;DHT22;334;48.808;9.222;2023-03-16T05:46:38;5.00;1.00
702;DHT22;334;48.808;9.222;2023-03-16T05:47:40;5.00;1.00
702;DHT22;334;48.808;9.222;2023-03-16T05:48:42;4.90;1.00
702;DHT22;334;48.808;9.222;2023-03-16T05:49:43;4.90;1.00
702;DHT22;334;48.808;9.222;2023-03-16T05:50:46;5.00;1.00
702;DHT22;334;48.808;9.222;2023-03-16T05:51:48;5.00;1.00
702;DHT22;334;48.808;9.222;2023-03-16T05:52:53;5.00;1.00
702;DHT22;334;48.808;9.222;2023-03-16T05:53:55;4.90;1.00
702;DHT22;334;48.808;9.222;2023-03-16T05:54:59;4.90;1.00
702;DHT22;334;48.808;9.222;2023-03-16T05:56:05;4.90;1.00
702;DHT22;334;48.808;9.222;2023-03-16T05:57:07;4.90;1.00
702;DHT22;334;48.808;9.222;2023-03-16T05:58:09;5.00;1.00
702;DHT22;334;48.808;9.222;2023-03-16T05:59:12;5.00;1.00
702;DHT22;334;48.808;9.222;2023-03-16T06:00:14;5.00;1.00
702;DHT22;334;48.808;9.222;2023-03-16T06:01:17;5.00;1.00
702;DHT22;334;48.808;9.222;2023-03-16T06:02:21;5.00;1.00
702;DHT22;334;48.808;9.222;2023-03-16T06:03:22;5.00;1.00
702;DHT22;334;48.808;9.222;2023-03-16T06:04:24;5.00;1.00
702;DHT22;334;48.808;9.222;2023-03-16T06:05:26;5.00;1.00
702;DHT22;334;48.808;9.222;2023-03-16T06:06:29;5.00;1.00
702;DHT22;334;48.808;9.222;2023-03-16T06:07:30;5.00;1.00
702;DHT22;334;48.808;9.222;2023-03-16T06:08:32;5.00;1.00
702;DHT22;334;48.808;9.222;2023-03-16T06:09:34;5.00;1.00
702;DHT22;334;48.808;9.222;2023-03-16T06:10:36;5.00;1.00
702;DHT22;334;48.808;9.222;2023-03-16T06:11:37;5.00;1.00
702;DHT22;334;48.808;9.222;2023-03-16T06:12:39;5.00;1.00
702;DHT22;334;48.808;9.222;2023-03-16T06:13:41;5.00;1.00
702;DHT22;334;48.808;9.222;2023-03-16T06:14:43;5.00;1.00
702;DHT22;334;48.808;9.222;2023-03-16T06:15:48;5.10;1.00
702;DHT22;334;48.808;9.222;2023-03-16T06:16:50;5.10;1.00
702;DHT22;334;48.808;9.222;2023-03-16T06:17:52;5.10;1.00
702;DHT22;334;48.808;9.222;2023-03-16T06:18:53;5.10;1.00
702;DHT22;334;48.808;9.222;2023-03-16T06:20:00;5.10;1.00
702;DHT22;334;48.808;9.222;2023-03-16T06:21:02;5.10;1.00
702;DHT22;334;48.808;9.222;2023-03-16T06:22:04;5.10;1.00
702;DHT22;334;48.808;9.222;2023-03-16T06:23:07;5.10;1.00
702;DHT22;334;48.808;9.222;2023-03-16T06:24:09;5.10;1.00
702;DHT22;334;48.808;9.222;2023-03-16T06:25:12;5.10;1.00
702;DHT22;334;48.808;9.222;2023-03-16T06:26:14;5.10;1.00
702;DHT22;334;48.808;9.222;2023-03-16T06:27:16;5.10;1.00
702;DHT22;334;48.808;9.222;2023-03-16T06:28:22;5.10;1.00
702;DHT22;334;48.808;9.222;2023-03-16T06:29:23;5.10;1.00
702;DHT22;334;48.808;9.222;2023-03-16T06:30:26;5.10;1.00
702;DHT22;334;48.808;9.222;2023-03-16T06:31:29;5.00;1.00
702;DHT22;334;48.808;9.222;2023-03-16T06:32:31;5.00;1.00
702;DHT22;334;48.808;9.222;2023-03-16T06:33:33;5.00;1.00
702;DHT22;334;48.808;9.222;2023-03-16T06:34:35;5.00;1.00
702;DHT22;334;48.808;9.222;2023-03-16T06:35:38;5.00;1.00
702;DHT22;334;48.808;9.222;2023-03-16T06:36:40;5.00;1.00
702;DHT22;334;48.808;9.222;2023-03-16T06:37:42;5.00;1.00
702;DHT22;334;48.808;9.222;2023-03-16T06:38:44;5.00;1.00
702;DHT22;334;48.808;9.222;2023-03-16T06:39:46;5.00;1.00
702;DHT22;334;48.808;9.222;2023-03-16T06:40:52;5.00;1.00
702;DHT22;334;48.808;9.222;2023-03-16T06:41:54;4.90;1.00
702;DHT22;334;48.808;9.222;2023-03-16T06:42:56;5.00;1.00
702;DHT22;334;48.808;9.222;2023-03-16T06:43:57;5.00;1.00
702;DHT22;334;48.808;9.222;2023-03-16T06:44:59;5.00;1.00
702;DHT22;334;48.808;9.222;2023-03-16T06:46:01;5.10;1.00
702;DHT22;334;48.808;9.222;2023-03-16T06:47:04;5.10;1.00
702;DHT22;334;48.808;9.222;2023-03-16T06:48:06;5.20;1.00
702;DHT22;334;48.808;9.222;2023-03-16T06:49:09;5.20;1.00
702;DHT22;334;48.808;9.222;2023-03-16T06:50:11;5.20;1.00
702;DHT22;334;48.808;9.222;2023-03-16T06:51:14;5.20;1.00
702;DHT22;334;48.808;9.222;2023-03-16T06:52:17;5.30;1.00
702;DHT22;334;48.808;9.222;2023-03-16T06:53:19;5.30;1.00
702;DHT22;334;48.808;9.222;2023-03-16T06:54:23;5.30;1.00
702;DHT22;334;48.808;9.222;2023-03-16T06:55:25;5.30;1.00
702;DHT22;334;48.808;9.222;2023-03-16T06:56:27;5.30;1.00
702;DHT22;334;48.808;9.222;2023-03-16T06:57:28;5.30;1.00
702;DHT22;334;48.808;9.222;2023-03-16T06:58:30;5.40;1.00
702;DHT22;334;48.808;9.222;2023-03-16T06:59:32;5.40;1.00
702;DHT22;334;48.808;9.222;2023-03-16T07:00:35;5.40;1.00
702;DHT22;334;48.808;9.222;2023-03-16T07:01:36;5.40;1.00
702;DHT22;334;48.808;9.222;2023-03-16T07:02:39;5.40;1.00
702;DHT22;334;48.808;9.222;2023-03-16T07:03:41;5.40;1.00
702;DHT22;334;48.808;9.222;2023-03-16T07:04:43;5.50;1.00
702;DHT22;334;48.808;9.222;2023-03-16T07:05:45;5.50;1.00
702;DHT22;334;48.808;9.222;2023-03-16T07:06:47;5.50;1.00
702;DHT22;334;48.808;9.222;2023-03-16T07:07:49;5.60;1.00
702;DHT22;334;48.808;9.222;2023-03-16T07:08:51;5.60;1.00
702;DHT22;334;48.808;9.222;2023-03-16T07:09:53;5.60;1.00
702;DHT22;334;48.808;9.222;2023-03-16T07:10:54;5.70;1.00
702;DHT22;334;48.808;9.222;2023-03-16T07:11:56;5.70;1.00
702;DHT22;334;48.808;9.222;2023-03-16T07:12:58;5.70;1.00
702;DHT22;334;48.808;9.222;2023-03-16T07:14:00;5.80;1.00
702;DHT22;334;48.808;9.222;2023-03-16T07:15:03;5.80;1.00
702;DHT22;334;48.808;9.222;2023-03-16T07:16:05;5.80;1.00
702;DHT22;334;48.808;9.222;2023-03-16T07:17:07;5.80;1.00
702;DHT22;334;48.808;9.222;2023-03-16T07:18:09;5.80;1.00
702;DHT22;334;48.808;9.222;2023-03-16T07:19:12;5.80;1.00
702;DHT22;334;48.808;9.222;2023-03-16T07:20:14;5.80;1.00
702;DHT22;334;48.808;9.222;2023-03-16T07:21:17;5.80;1.00
702;DHT22;334;48.808;9.222;2023-03-16T07:22:19;5.80;1.00
702;DHT22;334;48.808;9.222;2023-03-16T07:23:20;5.90;1.00
702;DHT22;334;48.808;9.222;2023-03-16T07:24:22;5.90;1.00
702;DHT22;334;48.808;9.222;2023-03-16T07:25:24;5.90;1.00
702;DHT22;334;48.808;9.222;2023-03-16T07:26:27;5.90;1.00